aviador You're here:

PFNO Decoded Metar

in
Report Time2017-07-26 21:56:00
UTC Time2017-07-26 22:24:07
Flight Rules vfr VFR
WindCalm
Visibility9999 m
Phenomena:N/A
Clouds:N/A
Expected CloudBase > 2,800 ft AGL from Temp-Dew spread
CeilingNone
Temp18°C
Dew Point11°C (64% RH)
QNH1014 hPa
Raw Report
PFNO 262156Z AUTO 00000KT 10SM CLR 18/11 A2993 RMK AO2 SLP135
T01780106=

Extra information for PFNO:More info

Social comments